createdAt,value
2018-02-20T00:00:42.025Z,5.10
2018-02-20T00:01:42.011Z,5.20
2018-02-20T00:02:42.002Z,4.90
2018-02-20T00:03:41.996Z,5.10
2018-02-20T00:04:42.008Z,4.90
2018-02-20T00:05:41.991Z,5.00
2018-02-20T00:06:41.986Z,4.70
2018-02-20T00:07:41.989Z,5.10
2018-02-20T00:08:41.981Z,4.80
2018-02-20T00:09:41.972Z,5.00
2018-02-20T00:10:41.967Z,4.90
2018-02-20T00:11:41.961Z,4.90
2018-02-20T00:12:41.958Z,5.10
2018-02-20T00:13:41.948Z,5.10
2018-02-20T00:14:41.944Z,4.90
2018-02-20T00:15:41.931Z,5.00
2018-02-20T00:16:41.928Z,5.00
2018-02-20T00:17:41.933Z,5.30
2018-02-20T00:18:41.926Z,5.00
2018-02-20T00:19:41.913Z,5.00
2018-02-20T00:20:41.908Z,5.10
2018-02-20T00:21:41.910Z,5.40
2018-02-20T00:22:41.898Z,5.00
2018-02-20T00:23:41.884Z,5.10
2018-02-20T00:24:41.895Z,5.10
2018-02-20T00:25:41.884Z,5.20
2018-02-20T00:26:41.877Z,4.70
2018-02-20T00:27:41.864Z,5.10
2018-02-20T00:28:41.872Z,5.00
2018-02-20T00:29:41.863Z,5.10
2018-02-20T00:30:41.857Z,5.10
2018-02-20T00:31:41.838Z,5.10
2018-02-20T00:32:41.845Z,4.90
2018-02-20T00:33:41.837Z,5.30
2018-02-20T00:34:41.822Z,5.10
2018-02-20T00:35:41.822Z,5.10
2018-02-20T00:36:41.817Z,5.40
2018-02-20T00:37:41.824Z,5.10
2018-02-20T00:38:41.809Z,5.50
2018-02-20T00:39:41.803Z,4.90
2018-02-20T00:40:41.809Z,5.40
2018-02-20T00:41:41.803Z,5.20
2018-02-20T00:42:41.783Z,5.30
2018-02-20T00:43:41.786Z,5.20
2018-02-20T00:44:41.782Z,5.00
2018-02-20T00:45:41.784Z,5.20
2018-02-20T00:46:41.758Z,5.20
2018-02-20T00:47:41.765Z,5.30
2018-02-20T00:48:41.764Z,5.10
2018-02-20T00:49:41.755Z,5.10
2018-02-20T00:50:41.737Z,5.30
2018-02-20T00:51:41.739Z,5.40
2018-02-20T00:52:41.738Z,5.10
2018-02-20T00:53:41.740Z,5.10
2018-02-20T00:54:41.723Z,5.00
2018-02-20T00:55:41.714Z,5.10
2018-02-20T00:56:41.710Z,5.20
2018-02-20T00:57:41.714Z,4.90
2018-02-20T00:58:41.704Z,5.30
2018-02-20T00:59:41.699Z,5.50
2018-02-20T01:00:41.692Z,4.90
2018-02-20T01:01:41.689Z,4.80
2018-02-20T01:02:41.678Z,5.10
2018-02-20T01:03:41.671Z,5.10
2018-02-20T01:04:41.684Z,4.90
2018-02-20T01:05:41.664Z,4.60
2018-02-20T01:06:41.656Z,5.20
2018-02-20T01:07:41.650Z,5.20
2018-02-20T01:08:41.658Z,5.20
2018-02-20T01:09:41.643Z,5.10
2018-02-20T01:10:41.634Z,5.20
2018-02-20T01:11:41.629Z,5.20
2018-02-20T01:12:41.627Z,4.80
2018-02-20T01:13:41.617Z,5.20
2018-02-20T01:14:41.612Z,5.20
2018-02-20T01:15:41.609Z,5.20
2018-02-20T01:16:41.597Z,5.30
2018-02-20T01:17:41.600Z,5.30
2018-02-20T01:18:41.585Z,5.10
2018-02-20T01:19:41.579Z,5.00
2018-02-20T01:20:41.580Z,5.50
2018-02-20T01:21:41.569Z,5.50
2018-02-20T01:22:41.569Z,5.30
2018-02-20T01:23:41.575Z,4.70
2018-02-20T01:24:41.550Z,5.10
2018-02-20T01:25:41.573Z,5.00
2018-02-20T01:26:41.549Z,5.40
2018-02-20T01:27:41.545Z,4.90
2018-02-20T01:28:41.542Z,5.30
2018-02-20T01:29:41.528Z,5.30
2018-02-20T01:30:41.520Z,5.40
2018-02-20T01:31:41.538Z,5.40
2018-02-20T01:32:41.518Z,5.20
2018-02-20T01:33:41.508Z,5.00
2018-02-20T01:34:41.503Z,4.60
2018-02-20T01:35:41.494Z,5.00
2018-02-20T01:36:41.501Z,5.00
2018-02-20T01:37:41.490Z,5.30
2018-02-20T01:38:41.482Z,5.00
2018-02-20T01:39:41.489Z,5.20
2018-02-20T01:40:41.472Z,5.20
2018-02-20T01:41:41.467Z,5.20
2018-02-20T01:42:41.465Z,5.30
2018-02-20T01:43:41.454Z,5.10
2018-02-20T01:44:41.457Z,5.00
2018-02-20T01:45:41.434Z,5.50
2018-02-20T01:46:41.442Z,5.20
2018-02-20T01:47:41.428Z,5.30
2018-02-20T01:48:41.423Z,5.20
2018-02-20T01:49:41.410Z,5.00
2018-02-20T01:50:41.416Z,4.90
2018-02-20T01:51:41.408Z,5.10
2018-02-20T01:52:41.406Z,5.20
2018-02-20T01:53:41.398Z,5.30
2018-02-20T01:54:41.390Z,5.50
2018-02-20T01:55:41.380Z,5.30
2018-02-20T01:56:41.388Z,5.30
2018-02-20T01:57:41.379Z,5.10
2018-02-20T01:58:41.372Z,4.80
2018-02-20T01:59:41.370Z,5.50
2018-02-20T02:00:41.369Z,5.60
2018-02-20T02:01:41.355Z,5.00
2018-02-20T02:02:41.348Z,5.50
2018-02-20T02:03:41.351Z,5.20
2018-02-20T02:04:41.348Z,5.30
2018-02-20T02:05:41.323Z,5.10
2018-02-20T02:06:41.334Z,5.10
2018-02-20T02:07:41.319Z,5.30
2018-02-20T02:08:41.319Z,5.20
2018-02-20T02:09:41.315Z,5.30
2018-02-20T02:10:41.309Z,5.10
2018-02-20T02:11:41.294Z,5.30
2018-02-20T02:12:41.289Z,5.20
2018-02-20T02:13:41.277Z,5.10
2018-02-20T02:14:41.276Z,5.30
2018-02-20T02:15:41.278Z,5.20
2018-02-20T02:16:41.263Z,5.10
2018-02-20T02:17:41.266Z,4.60
2018-02-20T02:18:41.249Z,5.30
2018-02-20T02:19:41.263Z,5.10
2018-02-20T02:20:41.251Z,5.10
2018-02-20T02:21:41.238Z,5.30
2018-02-20T02:22:41.226Z,5.30
2018-02-20T02:23:41.235Z,5.40
2018-02-20T02:24:41.220Z,5.30
2018-02-20T02:25:41.221Z,5.50
2018-02-20T02:26:41.220Z,5.10
2018-02-20T02:27:41.210Z,5.60
2018-02-20T02:28:41.207Z,5.20
2018-02-20T02:29:41.193Z,5.30
2018-02-20T02:30:41.182Z,5.20
2018-02-20T02:31:41.185Z,5.10
2018-02-20T02:32:41.176Z,5.30
2018-02-20T02:33:41.176Z,5.40
2018-02-20T02:34:41.173Z,5.30
2018-02-20T02:35:41.169Z,5.50
2018-02-20T02:36:41.166Z,5.30
2018-02-20T02:37:41.148Z,5.10
2018-02-20T02:38:41.155Z,5.20
2018-02-20T02:39:41.141Z,5.20
2018-02-20T02:40:41.140Z,5.70
2018-02-20T02:41:41.138Z,5.20
2018-02-20T02:42:41.129Z,5.40
2018-02-20T02:43:41.115Z,5.20
2018-02-20T02:44:41.130Z,5.10
2018-02-20T02:45:41.102Z,5.30
2018-02-20T02:46:41.115Z,5.60
2018-02-20T02:47:41.092Z,5.50
2018-02-20T02:48:41.103Z,5.70
2018-02-20T02:49:41.094Z,5.20
2018-02-20T02:50:41.086Z,5.50
2018-02-20T02:51:41.078Z,5.30
2018-02-20T02:52:41.062Z,5.10
2018-02-20T02:53:41.082Z,5.30
2018-02-20T02:54:41.061Z,5.30
2018-02-20T02:55:41.055Z,5.30
2018-02-20T02:56:41.059Z,5.20
2018-02-20T02:57:41.053Z,5.50
2018-02-20T02:58:41.039Z,5.80
2018-02-20T02:59:41.035Z,5.40
2018-02-20T03:00:41.021Z,5.10
2018-02-20T03:01:41.064Z,5.40
2018-02-20T03:02:41.020Z,5.50
2018-02-20T03:03:41.009Z,5.40
2018-02-20T03:04:41.023Z,5.30
2018-02-20T03:05:41.011Z,5.40
2018-02-20T03:06:40.999Z,5.40
2018-02-20T03:07:40.989Z,5.40
2018-02-20T03:08:40.984Z,5.00
2018-02-20T03:09:40.978Z,5.50
2018-02-20T03:10:40.989Z,5.30
2018-02-20T03:11:40.954Z,5.20
2018-02-20T03:12:40.959Z,5.40
2018-02-20T03:13:40.959Z,5.00
2018-02-20T03:14:40.940Z,5.30
2018-02-20T03:15:40.946Z,5.30
2018-02-20T03:16:40.942Z,5.20
2018-02-20T03:17:40.951Z,5.30
2018-02-20T03:18:40.932Z,5.30
2018-02-20T03:19:40.929Z,5.60
2018-02-20T03:20:40.913Z,5.40
2018-02-20T03:21:40.911Z,5.50
2018-02-20T03:22:40.902Z,5.60
2018-02-20T03:23:40.907Z,5.10
2018-02-20T03:24:40.902Z,5.50
2018-02-20T03:25:40.885Z,5.10
2018-02-20T03:26:40.887Z,5.40
2018-02-20T03:27:40.869Z,5.20
2018-02-20T03:28:40.874Z,5.40
2018-02-20T03:29:40.882Z,5.50
2018-02-20T03:30:40.863Z,5.50
2018-02-20T03:31:40.861Z,5.60
2018-02-20T03:32:40.851Z,5.30
2018-02-20T03:33:40.842Z,5.20
2018-02-20T03:34:40.851Z,5.40
2018-02-20T03:35:40.838Z,5.20
2018-02-20T03:36:40.833Z,5.30
2018-02-20T03:37:40.826Z,5.20
2018-02-20T03:38:40.812Z,5.30
2018-02-20T03:39:40.809Z,5.30
2018-02-20T03:40:40.805Z,5.30
2018-02-20T03:41:40.805Z,5.50
2018-02-20T03:42:40.790Z,5.60
2018-02-20T03:43:40.786Z,5.40
2018-02-20T03:44:40.784Z,5.10
2018-02-20T03:45:40.774Z,5.40
2018-02-20T03:46:40.782Z,5.10
2018-02-20T03:47:40.764Z,5.20
2018-02-20T03:48:40.764Z,5.30
2018-02-20T03:49:40.755Z,5.40
2018-02-20T03:50:40.751Z,5.30
2018-02-20T03:51:40.746Z,5.50
2018-02-20T03:52:40.745Z,5.70
2018-02-20T03:53:40.731Z,5.50
2018-02-20T03:54:40.725Z,5.40
2018-02-20T03:55:40.727Z,5.60
2018-02-20T03:56:40.720Z,5.40
2018-02-20T03:57:40.711Z,5.50
2018-02-20T03:58:40.715Z,5.40
2018-02-20T03:59:40.708Z,5.70
2018-02-20T04:00:40.695Z,5.20
2018-02-20T04:01:40.696Z,5.70
2018-02-20T04:02:40.685Z,5.30
2018-02-20T04:03:40.676Z,5.40
2018-02-20T04:04:40.678Z,5.50
2018-02-20T04:05:40.673Z,5.30
2018-02-20T04:06:40.655Z,5.00
2018-02-20T04:07:40.651Z,5.50
2018-02-20T04:08:40.650Z,5.50
2018-02-20T04:09:40.645Z,5.60
2018-02-20T04:10:40.640Z,5.70
2018-02-20T04:11:40.633Z,5.70
2018-02-20T04:12:40.641Z,5.60
2018-02-20T04:13:40.626Z,5.40
2018-02-20T04:14:40.612Z,5.60
2018-02-20T04:15:40.622Z,5.20
2018-02-20T04:16:40.609Z,5.60
2018-02-20T04:17:40.602Z,5.40
2018-02-20T04:18:40.596Z,5.60
2018-02-20T04:19:40.585Z,5.40
2018-02-20T04:20:40.583Z,5.30
2018-02-20T04:21:40.582Z,5.60
2018-02-20T04:22:40.561Z,5.40
2018-02-20T04:23:40.563Z,5.40
2018-02-20T04:24:40.570Z,5.50
2018-02-20T04:25:40.571Z,5.30
2018-02-20T04:26:40.546Z,5.30
2018-02-20T04:27:40.566Z,5.40
2018-02-20T04:28:40.547Z,5.20
2018-02-20T04:29:40.537Z,5.40
2018-02-20T04:30:40.533Z,5.40
2018-02-20T04:31:40.522Z,5.30
2018-02-20T04:32:40.529Z,5.50
2018-02-20T04:33:40.525Z,5.30
2018-02-20T04:34:40.514Z,5.00
2018-02-20T04:35:40.502Z,5.50
2018-02-20T04:36:40.494Z,5.60
2018-02-20T04:37:40.496Z,5.50
2018-02-20T04:38:40.475Z,5.50
2018-02-20T04:39:40.472Z,5.60
2018-02-20T04:40:40.474Z,5.50
2018-02-20T04:41:40.469Z,5.70
2018-02-20T04:42:40.457Z,5.90
2018-02-20T04:43:40.453Z,5.60
2018-02-20T04:44:40.458Z,5.60
2018-02-20T04:45:40.447Z,5.20
2018-02-20T04:46:40.447Z,5.50
2018-02-20T04:47:40.438Z,5.50
2018-02-20T04:48:40.438Z,5.20
2018-02-20T04:49:40.429Z,5.70
2018-02-20T04:50:40.419Z,5.60
2018-02-20T04:51:40.412Z,5.10
2018-02-20T04:52:40.411Z,5.40
2018-02-20T04:53:40.406Z,5.70
2018-02-20T04:54:40.396Z,5.60
2018-02-20T04:55:40.394Z,5.40
2018-02-20T04:56:40.386Z,5.90
2018-02-20T04:57:40.379Z,5.40
2018-02-20T04:58:40.377Z,5.40
2018-02-20T04:59:40.358Z,6.00
2018-02-20T05:00:40.368Z,5.50
2018-02-20T05:01:40.358Z,5.60
2018-02-20T05:02:40.349Z,5.50
2018-02-20T05:03:40.343Z,5.50
2018-02-20T05:04:40.343Z,5.10
2018-02-20T05:05:40.343Z,5.60
2018-02-20T05:06:40.323Z,5.60
2018-02-20T05:07:40.328Z,5.50
2018-02-20T05:08:40.317Z,5.30
2018-02-20T05:09:40.308Z,5.60
2018-02-20T05:10:40.303Z,5.40
2018-02-20T05:11:40.308Z,5.40
2018-02-20T05:12:40.313Z,5.80
2018-02-20T05:13:40.292Z,5.40
2018-02-20T05:14:40.280Z,5.40
2018-02-20T05:15:40.282Z,5.70
2018-02-20T05:16:40.279Z,5.60
2018-02-20T05:17:40.274Z,5.80
2018-02-20T05:18:40.262Z,5.50
2018-02-20T05:19:40.258Z,5.40
2018-02-20T05:20:40.249Z,5.60
2018-02-20T05:21:40.245Z,5.40
2018-02-20T05:22:40.238Z,5.60
2018-02-20T05:23:40.242Z,5.70
2018-02-20T05:24:40.239Z,5.50
2018-02-20T05:25:40.230Z,5.30
2018-02-20T05:26:40.224Z,5.70
2018-02-20T05:27:40.214Z,5.80
2018-02-20T05:28:40.205Z,5.60
2018-02-20T05:29:40.203Z,5.10
2018-02-20T05:30:40.193Z,5.60
2018-02-20T05:31:40.193Z,5.90
2018-02-20T05:32:40.180Z,5.40
2018-02-20T05:33:40.175Z,5.40
2018-02-20T05:34:40.182Z,5.60
2018-02-20T05:35:40.173Z,5.60
2018-02-20T05:36:40.175Z,5.40
2018-02-20T05:37:40.166Z,5.60
2018-02-20T05:38:40.156Z,5.60
2018-02-20T05:39:40.149Z,5.40
2018-02-20T05:40:40.143Z,5.50
2018-02-20T05:41:40.134Z,5.50
2018-02-20T05:42:40.127Z,5.60
2018-02-20T05:43:40.133Z,5.50
2018-02-20T05:44:40.123Z,5.50
2018-02-20T05:45:40.118Z,5.30
2018-02-20T05:46:40.130Z,5.60
2018-02-20T05:47:40.115Z,5.50
2018-02-20T05:48:40.104Z,5.50
2018-02-20T05:49:40.097Z,5.40
2018-02-20T05:50:40.094Z,5.50
2018-02-20T05:51:40.092Z,5.40
2018-02-20T05:52:40.079Z,5.30
2018-02-20T05:53:40.080Z,5.70
2018-02-20T05:54:40.069Z,5.70
2018-02-20T05:55:40.060Z,5.60
2018-02-20T05:56:40.059Z,5.70
2018-02-20T05:57:40.058Z,5.50
2018-02-20T05:58:40.040Z,5.50
2018-02-20T05:59:40.042Z,5.80
2018-02-20T06:00:40.028Z,5.30
2018-02-20T06:01:40.030Z,5.70
2018-02-20T06:02:40.016Z,5.60
2018-02-20T06:03:40.020Z,5.60
2018-02-20T06:04:40.021Z,5.70
2018-02-20T06:05:40.004Z,5.40
2018-02-20T06:06:39.999Z,5.70
2018-02-20T06:07:39.999Z,5.50
2018-02-20T06:08:39.989Z,5.60
2018-02-20T06:09:40.044Z,5.40
2018-02-20T06:10:39.980Z,5.60
2018-02-20T06:11:39.978Z,5.50
2018-02-20T06:12:39.965Z,5.60
2018-02-20T06:13:39.970Z,5.80
2018-02-20T06:14:39.955Z,5.80
2018-02-20T06:15:39.960Z,5.50
2018-02-20T06:16:39.952Z,5.90
2018-02-20T06:17:39.936Z,5.40
2018-02-20T06:18:39.940Z,5.30
2018-02-20T06:19:39.944Z,5.50
2018-02-20T06:20:39.918Z,5.60
2018-02-20T06:21:39.926Z,5.60
2018-02-20T06:22:39.915Z,6.00
2018-02-20T06:23:39.907Z,5.80
2018-02-20T06:24:39.904Z,5.40
2018-02-20T06:25:39.891Z,5.70
2018-02-20T06:26:39.895Z,5.80
2018-02-20T06:27:39.881Z,5.60
2018-02-20T06:28:39.878Z,5.60
2018-02-20T06:29:39.876Z,5.70
2018-02-20T06:30:39.870Z,5.80
2018-02-20T06:31:39.862Z,5.70
2018-02-20T06:32:39.858Z,5.70
2018-02-20T06:33:39.856Z,5.90
2018-02-20T06:34:39.842Z,5.70
2018-02-20T06:35:39.836Z,5.70
2018-02-20T06:36:39.840Z,5.70
2018-02-20T06:37:39.835Z,5.70
2018-02-20T06:38:39.828Z,5.80
2018-02-20T06:39:39.824Z,5.60
2018-02-20T06:40:39.815Z,5.50
2018-02-20T06:41:39.805Z,5.50
2018-02-20T06:42:39.811Z,5.50
2018-02-20T06:43:39.801Z,5.60
2018-02-20T06:44:39.789Z,5.50
2018-02-20T06:45:39.774Z,5.30
2018-02-20T06:46:39.775Z,5.80
2018-02-20T06:47:39.766Z,5.70
2018-02-20T06:48:39.769Z,5.80
2018-02-20T06:49:39.760Z,5.50
2018-02-20T06:50:39.762Z,5.60
2018-02-20T06:51:39.745Z,5.90
2018-02-20T06:52:39.749Z,5.80
2018-02-20T06:53:39.741Z,5.80
2018-02-20T06:54:39.740Z,5.80
2018-02-20T06:55:39.741Z,5.90
2018-02-20T06:56:39.715Z,5.70
2018-02-20T06:57:39.718Z,5.70
2018-02-20T06:58:39.703Z,5.80
2018-02-20T06:59:39.717Z,5.70
2018-02-20T07:00:39.702Z,5.90
2018-02-20T07:01:39.694Z,5.90
2018-02-20T07:02:39.686Z,6.00
2018-02-20T07:03:39.689Z,6.20
2018-02-20T07:04:39.690Z,6.20
2018-02-20T07:05:39.667Z,5.70
2018-02-20T07:06:39.667Z,6.30
2018-02-20T07:07:39.664Z,5.60
2018-02-20T07:08:39.659Z,6.30
2018-02-20T07:09:39.659Z,6.30
2018-02-20T07:10:39.646Z,6.10
2018-02-20T07:11:39.635Z,6.40
2018-02-20T07:12:39.632Z,6.30
2018-02-20T07:13:39.629Z,5.70
2018-02-20T07:14:39.636Z,5.80
2018-02-20T07:15:39.615Z,5.90
2018-02-20T07:16:39.610Z,6.00
2018-02-20T07:17:39.609Z,5.80
2018-02-20T07:18:39.600Z,5.60
2018-02-20T07:19:39.601Z,6.40
2018-02-20T07:20:39.589Z,5.50
2018-02-20T07:21:39.586Z,5.80
2018-02-20T07:22:39.576Z,5.80
2018-02-20T07:23:39.585Z,5.90
2018-02-20T07:24:39.566Z,5.50
2018-02-20T07:25:39.574Z,5.60
2018-02-20T07:26:39.558Z,5.60
2018-02-20T07:27:39.551Z,5.90
2018-02-20T07:28:39.545Z,5.50
2018-02-20T07:29:39.541Z,5.60
2018-02-20T07:30:39.537Z,5.60
2018-02-20T07:31:39.545Z,6.10
2018-02-20T07:32:39.527Z,6.00
2018-02-20T07:33:39.527Z,5.60
2018-02-20T07:34:39.517Z,6.00
2018-02-20T07:35:39.505Z,5.40
2018-02-20T07:36:39.510Z,6.00
2018-02-20T07:37:39.497Z,5.60
2018-02-20T07:38:39.506Z,5.80
2018-02-20T07:39:39.504Z,5.40
2018-02-20T07:40:39.482Z,6.30
2018-02-20T07:41:39.481Z,5.80
2018-02-20T07:42:39.471Z,5.60
2018-02-20T07:43:39.467Z,5.40
2018-02-20T07:44:39.456Z,5.70
2018-02-20T07:45:39.451Z,5.80
2018-02-20T07:46:39.446Z,5.60
2018-02-20T07:47:39.445Z,5.80
2018-02-20T07:48:39.445Z,6.20
2018-02-20T07:49:39.437Z,5.90
2018-02-20T07:50:39.430Z,5.60
2018-02-20T07:51:39.416Z,5.70
2018-02-20T07:52:39.410Z,6.10
2018-02-20T07:53:39.406Z,5.70
2018-02-20T07:54:39.400Z,6.30
2018-02-20T07:55:39.400Z,5.50
2018-02-20T07:56:39.415Z,6.30
2018-02-20T07:57:39.392Z,5.90
2018-02-20T07:58:39.381Z,5.80
2018-02-20T07:59:39.381Z,5.80
2018-02-20T08:00:39.375Z,6.10
2018-02-20T08:01:39.382Z,6.10
2018-02-20T08:02:39.366Z,6.10
2018-02-20T08:03:39.357Z,6.10
2018-02-20T08:04:39.344Z,6.20
2018-02-20T08:05:39.351Z,6.20
2018-02-20T08:06:39.331Z,6.20
2018-02-20T08:07:39.330Z,5.50
2018-02-20T08:08:39.327Z,6.10
2018-02-20T08:09:39.320Z,5.90
2018-02-20T08:10:39.320Z,5.90
2018-02-20T08:11:39.312Z,5.80
2018-02-20T08:12:39.307Z,5.90
2018-02-20T08:13:39.305Z,6.30
2018-02-20T08:14:39.295Z,6.00
2018-02-20T08:15:39.281Z,6.30
2018-02-20T08:16:39.292Z,6.00
2018-02-20T08:17:39.282Z,5.80
2018-02-20T08:18:39.321Z,6.00
2018-02-20T08:19:39.258Z,6.10
2018-02-20T08:20:39.270Z,5.80
2018-02-20T08:21:39.280Z,6.00
2018-02-20T08:22:39.248Z,6.30
2018-02-20T08:23:39.247Z,6.10
2018-02-20T08:24:39.236Z,6.20
2018-02-20T08:25:39.232Z,6.70
2018-02-20T08:26:39.232Z,6.40
2018-02-20T08:27:39.230Z,6.00
2018-02-20T08:28:39.221Z,6.70
2018-02-20T08:29:39.260Z,6.00
2018-02-20T08:30:39.203Z,6.30
2018-02-20T08:31:39.198Z,6.40
2018-02-20T08:32:39.202Z,6.00
2018-02-20T08:33:39.203Z,6.40
2018-02-20T08:34:39.192Z,6.50
2018-02-20T08:35:39.180Z,6.30
2018-02-20T08:36:39.177Z,6.50
2018-02-20T08:37:39.183Z,6.70
2018-02-20T08:38:39.168Z,6.40
2018-02-20T08:39:39.167Z,6.80
2018-02-20T08:40:39.158Z,6.40
2018-02-20T08:41:39.151Z,6.40
2018-02-20T08:42:39.144Z,6.90
2018-02-20T08:43:39.143Z,6.80
2018-02-20T08:44:39.136Z,7.30
2018-02-20T08:45:39.144Z,6.60
2018-02-20T08:46:39.129Z,7.10
2018-02-20T08:47:39.114Z,6.70
2018-02-20T08:48:39.111Z,6.80
2018-02-20T08:49:39.099Z,6.80
2018-02-20T08:50:39.107Z,6.50
2018-02-20T08:51:39.096Z,6.30
2018-02-20T08:52:39.089Z,6.10
2018-02-20T08:53:39.086Z,6.40
2018-02-20T08:54:39.084Z,5.90
2018-02-20T08:55:39.076Z,6.80
2018-02-20T08:56:39.066Z,6.40
2018-02-20T08:57:39.091Z,6.40
2018-02-20T08:58:39.056Z,6.30
2018-02-20T08:59:39.053Z,6.30
2018-02-20T09:00:39.054Z,5.90
2018-02-20T09:01:39.051Z,6.20
2018-02-20T09:02:39.038Z,6.50
2018-02-20T09:03:39.053Z,6.00
2018-02-20T09:04:39.023Z,6.00
2018-02-20T09:05:39.037Z,6.20
2018-02-20T09:06:39.026Z,6.30
2018-02-20T09:07:39.011Z,6.10
2018-02-20T09:08:39.009Z,5.90
2018-02-20T09:09:39.007Z,6.30
2018-02-20T09:10:38.990Z,5.90
2018-02-20T09:11:38.998Z,5.80
2018-02-20T09:12:38.981Z,6.10
2018-02-20T09:13:38.986Z,5.80
2018-02-20T09:14:38.986Z,6.00
2018-02-20T09:15:38.969Z,6.00
2018-02-20T09:16:38.967Z,5.90
2018-02-20T09:17:38.967Z,5.70
2018-02-20T09:18:38.973Z,5.80
2018-02-20T09:19:38.957Z,6.20
2018-02-20T09:20:38.944Z,6.20
2018-02-20T09:21:38.947Z,6.10
2018-02-20T09:22:38.938Z,6.30
2018-02-20T09:23:38.939Z,5.90
2018-02-20T09:24:38.928Z,6.00
2018-02-20T09:25:38.923Z,5.70
2018-02-20T09:26:38.913Z,6.30
2018-02-20T09:27:38.937Z,6.30
2018-02-20T09:28:38.909Z,6.10
2018-02-20T09:29:38.901Z,5.80
2018-02-20T09:30:38.918Z,6.40
2018-02-20T09:31:38.889Z,6.20
2018-02-20T09:32:38.897Z,6.30
2018-02-20T09:33:38.878Z,6.00
2018-02-20T09:34:38.876Z,6.10
2018-02-20T09:35:38.875Z,6.40
2018-02-20T09:36:38.878Z,6.40
2018-02-20T09:37:38.877Z,6.00
2018-02-20T09:38:38.858Z,6.10
2018-02-20T09:39:38.847Z,6.00
2018-02-20T09:40:38.848Z,6.20
2018-02-20T09:41:38.841Z,6.20
2018-02-20T09:42:38.840Z,6.10
2018-02-20T09:43:38.825Z,5.80
2018-02-20T09:44:38.837Z,5.80
2018-02-20T09:45:38.828Z,6.00
2018-02-20T09:46:38.824Z,6.50
2018-02-20T09:47:38.818Z,5.70
2018-02-20T09:48:38.807Z,6.20
2018-02-20T09:49:38.814Z,5.90
2018-02-20T09:50:38.797Z,6.10
2018-02-20T09:51:38.794Z,6.10
2018-02-20T09:52:38.791Z,5.80
2018-02-20T09:53:38.788Z,6.10
2018-02-20T09:54:38.779Z,6.40
2018-02-20T09:55:38.775Z,6.20
2018-02-20T09:56:38.769Z,6.00
2018-02-20T09:57:38.783Z,6.30
2018-02-20T09:58:38.764Z,5.70
2018-02-20T09:59:38.764Z,6.10
2018-02-20T10:00:38.763Z,6.40
2018-02-20T10:01:38.745Z,6.10
2018-02-20T10:02:38.744Z,6.50
2018-02-20T10:03:38.735Z,6.20
2018-02-20T10:04:38.736Z,5.90
2018-02-20T10:05:38.733Z,6.00
2018-02-20T10:06:38.729Z,6.40
2018-02-20T10:07:38.719Z,6.10
2018-02-20T10:08:38.715Z,6.50
2018-02-20T10:09:38.713Z,6.50
2018-02-20T10:10:38.702Z,6.10
2018-02-20T10:11:38.690Z,6.40
2018-02-20T10:12:38.693Z,6.20
2018-02-20T10:13:38.682Z,6.40
2018-02-20T10:14:38.680Z,6.30
2018-02-20T10:15:38.683Z,6.40
2018-02-20T10:16:38.673Z,6.30
2018-02-20T10:17:38.670Z,7.00
2018-02-20T10:18:38.673Z,6.30
2018-02-20T10:19:38.676Z,6.30
2018-02-20T10:20:38.651Z,6.60
2018-02-20T10:21:38.648Z,6.20
2018-02-20T10:22:38.650Z,6.20
2018-02-20T10:23:38.634Z,6.30
2018-02-20T10:24:38.631Z,6.00
2018-02-20T10:25:38.634Z,6.40
2018-02-20T10:26:38.632Z,6.10
2018-02-20T10:27:38.628Z,6.20
2018-02-20T10:28:38.629Z,6.40
2018-02-20T10:29:38.614Z,5.80
2018-02-20T10:30:38.603Z,6.50
2018-02-20T10:31:38.598Z,6.30
2018-02-20T10:32:38.594Z,6.30
2018-02-20T10:33:38.636Z,5.90
2018-02-20T10:34:38.592Z,5.90
2018-02-20T10:35:38.586Z,6.10
2018-02-20T10:36:38.584Z,5.60
2018-02-20T10:37:38.590Z,6.10
2018-02-20T10:38:38.575Z,6.10
2018-02-20T10:39:38.569Z,5.70
2018-02-20T10:40:38.566Z,5.60
2018-02-20T10:41:38.564Z,5.80
2018-02-20T10:42:38.560Z,5.80
2018-02-20T10:43:38.553Z,6.10
2018-02-20T10:44:38.551Z,6.40
2018-02-20T10:45:38.530Z,6.10
2018-02-20T10:46:38.534Z,6.20
2018-02-20T10:47:38.519Z,6.10
2018-02-20T10:48:38.529Z,6.10
2018-02-20T10:49:38.526Z,5.60
2018-02-20T10:50:38.519Z,5.90
2018-02-20T10:51:38.508Z,6.20
2018-02-20T10:52:38.503Z,5.90
2018-02-20T10:53:38.509Z,5.60
2018-02-20T10:54:38.520Z,6.20
2018-02-20T10:55:38.493Z,5.90
2018-02-20T10:56:38.481Z,5.40
2018-02-20T10:57:38.489Z,6.00
2018-02-20T10:58:38.476Z,6.10
2018-02-20T10:59:38.495Z,5.60
2018-02-20T11:00:38.480Z,5.60
2018-02-20T11:01:38.518Z,5.30
2018-02-20T11:02:38.464Z,5.80
2018-02-20T11:03:38.455Z,5.60
2018-02-20T11:04:38.456Z,5.90
2018-02-20T11:05:38.445Z,5.90
2018-02-20T11:06:38.449Z,5.50
2018-02-20T11:07:38.447Z,6.10
2018-02-20T11:08:38.426Z,5.30
2018-02-20T11:09:38.423Z,5.90
2018-02-20T11:10:38.419Z,6.00
2018-02-20T11:11:38.428Z,5.30
2018-02-20T11:12:38.412Z,5.80
2018-02-20T11:13:38.414Z,5.90
2018-02-20T11:14:38.429Z,5.70
2018-02-20T11:15:38.402Z,6.10
2018-02-20T11:16:38.413Z,5.50
2018-02-20T11:17:38.404Z,5.70
2018-02-20T11:18:38.386Z,5.50
2018-02-20T11:19:38.390Z,5.50
2018-02-20T11:20:38.383Z,5.50
2018-02-20T11:21:38.384Z,5.40
2018-02-20T11:22:38.390Z,5.30
2018-02-20T11:23:38.364Z,5.60
2018-02-20T11:24:38.360Z,5.60
2018-02-20T11:25:38.407Z,5.30
2018-02-20T11:26:38.346Z,6.00
2018-02-20T11:27:38.349Z,6.00
2018-02-20T11:28:38.349Z,5.70
2018-02-20T11:29:38.357Z,6.10
2018-02-20T11:30:38.339Z,6.30
2018-02-20T11:31:38.341Z,5.70
2018-02-20T11:32:38.322Z,6.00
2018-02-20T11:33:38.319Z,5.60
2018-02-20T11:34:38.325Z,6.00
2018-02-20T11:35:38.312Z,6.00
2018-02-20T11:36:38.310Z,5.70
2018-02-20T11:37:38.311Z,6.00
2018-02-20T11:38:38.358Z,6.00
2018-02-20T11:39:38.296Z,5.80
2018-02-20T11:40:38.284Z,5.70
2018-02-20T11:41:38.283Z,5.60
2018-02-20T11:42:38.277Z,5.20
2018-02-20T11:43:38.277Z,5.40
2018-02-20T11:44:38.267Z,5.90
2018-02-20T11:45:38.270Z,5.50
2018-02-20T11:46:38.264Z,5.50
2018-02-20T11:47:38.256Z,5.80
2018-02-20T11:48:38.267Z,5.50
2018-02-20T11:49:38.249Z,5.50
2018-02-20T11:50:38.240Z,5.80
2018-02-20T11:51:38.241Z,5.30
2018-02-20T11:52:38.240Z,5.20
2018-02-20T11:53:38.231Z,5.30
2018-02-20T11:54:38.217Z,5.20
2018-02-20T11:55:38.228Z,5.50
2018-02-20T11:56:38.233Z,5.50
2018-02-20T11:57:38.204Z,5.40
2018-02-20T11:58:38.217Z,5.40
2018-02-20T11:59:38.201Z,5.20
2018-02-20T12:00:38.192Z,5.70
2018-02-20T12:01:38.186Z,5.70
2018-02-20T12:02:38.185Z,5.90
2018-02-20T12:03:38.186Z,5.70
2018-02-20T12:04:38.178Z,5.30
2018-02-20T12:05:38.177Z,5.70
2018-02-20T12:06:38.173Z,5.70
2018-02-20T12:07:38.168Z,5.20
2018-02-20T12:08:38.160Z,5.60
2018-02-20T12:09:38.156Z,5.30
2018-02-20T12:10:38.160Z,5.10
2018-02-20T12:11:38.147Z,5.80
2018-02-20T12:12:38.143Z,5.50
2018-02-20T12:13:38.134Z,5.30
2018-02-20T12:14:38.136Z,5.60
2018-02-20T12:15:38.120Z,5.30
2018-02-20T12:16:38.139Z,5.40
2018-02-20T12:17:38.122Z,5.50
2018-02-20T12:18:38.103Z,5.50
2018-02-20T12:19:38.118Z,5.80
2018-02-20T12:20:38.132Z,5.30
2018-02-20T12:21:38.122Z,5.50
2018-02-20T12:22:38.088Z,5.50
2018-02-20T12:23:38.096Z,5.40
2018-02-20T12:24:38.087Z,5.20
2018-02-20T12:25:38.097Z,5.70
2018-02-20T12:26:38.097Z,5.10
2018-02-20T12:27:38.072Z,5.30
2018-02-20T12:28:38.134Z,5.10
2018-02-20T12:29:38.061Z,5.50
2018-02-20T12:30:38.052Z,5.60
2018-02-20T12:31:38.068Z,5.00
2018-02-20T12:32:38.052Z,5.20
2018-02-20T12:33:38.045Z,5.00
2018-02-20T12:34:38.070Z,5.60
2018-02-20T12:35:38.031Z,5.30
2018-02-20T12:36:38.033Z,5.70
2018-02-20T12:37:38.030Z,5.50
2018-02-20T12:38:38.011Z,5.50
2018-02-20T12:39:38.013Z,5.50
2018-02-20T12:40:38.015Z,5.40
2018-02-20T12:41:38.001Z,5.50
2018-02-20T12:42:37.997Z,5.50
2018-02-20T12:43:37.997Z,5.00
2018-02-20T12:44:37.995Z,5.60
2018-02-20T12:45:37.984Z,5.50
2018-02-20T12:46:37.982Z,5.40
2018-02-20T12:47:37.972Z,5.30
2018-02-20T12:48:37.973Z,5.50
2018-02-20T12:49:37.958Z,5.60
2018-02-20T12:50:37.959Z,5.70
2018-02-20T12:51:37.967Z,5.60
2018-02-20T12:52:37.956Z,6.00
2018-02-20T12:53:37.999Z,6.00
2018-02-20T12:54:37.948Z,5.80
2018-02-20T12:55:37.933Z,5.60
2018-02-20T12:56:37.948Z,5.80
2018-02-20T12:57:37.941Z,5.80
2018-02-20T12:58:37.918Z,5.90
2018-02-20T12:59:37.926Z,7.00
2018-02-20T13:00:37.917Z,8.70
2018-02-20T13:01:37.906Z,8.10
2018-02-20T13:02:37.902Z,6.10
2018-02-20T13:03:37.893Z,6.30
2018-02-20T13:04:37.907Z,7.50
2018-02-20T13:05:37.896Z,9.90
2018-02-20T13:06:37.877Z,9.90
2018-02-20T13:07:37.877Z,8.90
2018-02-20T13:08:37.872Z,7.10
2018-02-20T13:09:37.892Z,7.50
2018-02-20T13:10:37.870Z,8.00
2018-02-20T13:11:37.860Z,7.40
2018-02-20T13:12:37.876Z,8.20
2018-02-20T13:13:37.872Z,7.10
2018-02-20T13:14:37.892Z,8.10
2018-02-20T13:15:37.842Z,5.70
2018-02-20T13:16:37.833Z,8.20
2018-02-20T13:17:37.836Z,5.70
2018-02-20T13:18:37.827Z,6.70